sensor_id;sensor_type;location;lat;lon;timestamp;pressure;altitude;pressure_sealevel;temperature;humidity
77639;BME280;66802;52.574;14.398;2023-08-20T03:00:33;101850.44;;;21.37;84.16
77639;BME280;66802;52.574;14.398;2023-08-20T03:02:59;101847.50;;;21.39;84.30
77639;BME280;66802;52.574;14.398;2023-08-20T03:05:24;101852.81;;;21.40;84.30
77639;BME280;66802;52.574;14.398;2023-08-20T03:07:50;101850.84;;;21.34;84.75
77639;BME280;66802;52.574;14.398;2023-08-20T03:10:16;101838.75;;;21.29;85.16
77639;BME280;66802;52.574;14.398;2023-08-20T03:12:41;101845.28;;;21.28;84.96
77639;BME280;66802;52.574;14.398;2023-08-20T03:15:07;101848.47;;;21.31;84.45
77639;BME280;66802;52.574;14.398;2023-08-20T03:17:33;101853.59;;;21.34;83.31
77639;BME280;66802;52.574;14.398;2023-08-20T03:20:00;101857.38;;;21.33;83.16
77639;BME280;66802;52.574;14.398;2023-08-20T03:22:26;101862.81;;;21.27;83.67
77639;BME280;66802;52.574;14.398;2023-08-20T03:24:53;101865.88;;;21.17;84.62
77639;BME280;66802;52.574;14.398;2023-08-20T03:27:19;101866.81;;;21.09;85.29
77639;BME280;66802;52.574;14.398;2023-08-20T03:29:46;101864.75;;;21.11;85.24
77639;BME280;66802;52.574;14.398;2023-08-20T03:32:11;101868.53;;;21.10;85.03
77639;BME280;66802;52.574;14.398;2023-08-20T03:34:38;101862.59;;;21.07;85.01
77639;BME280;66802;52.574;14.398;2023-08-20T03:37:04;101871.22;;;21.04;85.47
77639;BME280;66802;52.574;14.398;2023-08-20T03:39:30;101864.59;;;20.98;86.45
77639;BME280;66802;52.574;14.398;2023-08-20T03:41:57;101876.66;;;20.97;86.82
77639;BME280;66802;52.574;14.398;2023-08-20T03:44:23;101871.34;;;20.96;87.21
77639;BME280;66802;52.574;14.398;2023-08-20T03:46:48;101873.25;;;20.95;86.92
77639;BME280;66802;52.574;14.398;2023-08-20T03:49:14;101880.97;;;21.06;85.12
77639;BME280;66802;52.574;14.398;2023-08-20T03:51:40;101884.25;;;21.17;84.05
77639;BME280;66802;52.574;14.398;2023-08-20T03:54:06;101886.00;;;21.03;85.43
77639;BME280;66802;52.574;14.398;2023-08-20T03:56:31;101883.56;;;20.93;85.91
77639;BME280;66802;52.574;14.398;2023-08-20T03:58:57;101891.97;;;21.06;85.77
77639;BME280;66802;52.574;14.398;2023-08-20T04:01:22;101890.63;;;21.02;85.60
77639;BME280;66802;52.574;14.398;2023-08-20T04:03:48;101904.16;;;21.04;85.58
77639;BME280;66802;52.574;14.398;2023-08-20T04:06:14;101900.56;;;21.03;85.16
77639;BME280;66802;52.574;14.398;2023-08-20T04:08:40;101907.09;;;21.02;84.69
77639;BME280;66802;52.574;14.398;2023-08-20T04:11:06;101920.19;;;21.00;84.54
77639;BME280;66802;52.574;14.398;2023-08-20T04:13:31;101920.03;;;20.87;85.61
77639;BME280;66802;52.574;14.398;2023-08-20T04:15:57;101916.88;;;20.90;85.17
77639;BME280;66802;52.574;14.398;2023-08-20T04:18:23;101928.00;;;20.82;85.88
77639;BME280;66802;52.574;14.398;2023-08-20T04:20:52;101934.84;;;20.71;86.75
77639;BME280;66802;52.574;14.398;2023-08-20T04:23:19;101941.72;;;20.67;86.88
77639;BME280;66802;52.574;14.398;2023-08-20T04:25:45;101941.34;;;20.70;86.65
77639;BME280;66802;52.574;14.398;2023-08-20T04:28:14;101944.88;;;20.64;87.25
77639;BME280;66802;52.574;14.398;2023-08-20T04:30:40;101937.03;;;20.61;87.10
77639;BME280;66802;52.574;14.398;2023-08-20T04:33:06;101938.25;;;20.59;87.21
77639;BME280;66802;52.574;14.398;2023-08-20T04:35:31;101935.88;;;20.56;88.18
77639;BME280;66802;52.574;14.398;2023-08-20T04:37:57;101933.81;;;20.58;86.94
77639;BME280;66802;52.574;14.398;2023-08-20T04:40:23;101939.47;;;20.56;87.60
77639;BME280;66802;52.574;14.398;2023-08-20T04:42:49;101940.03;;;20.66;86.94
77639;BME280;66802;52.574;14.398;2023-08-20T04:45:15;101950.44;;;20.71;86.32
77639;BME280;66802;52.574;14.398;2023-08-20T04:47:43;101945.63;;;20.73;85.94
77639;BME280;66802;52.574;14.398;2023-08-20T04:50:09;101950.44;;;20.71;86.22
77639;BME280;66802;52.574;14.398;2023-08-20T04:52:35;101947.88;;;20.69;86.27
77639;BME280;66802;52.574;14.398;2023-08-20T04:55:01;101947.16;;;20.61;87.20
77639;BME280;66802;52.574;14.398;2023-08-20T04:57:27;101942.03;;;20.58;87.94
77639;BME280;66802;52.574;14.398;2023-08-20T04:59:52;101943.38;;;20.62;87.46
77639;BME280;66802;52.574;14.398;2023-08-20T05:02:18;101941.53;;;20.69;86.90
77639;BME280;66802;52.574;14.398;2023-08-20T05:04:44;101952.78;;;20.89;86.03
77639;BME280;66802;52.574;14.398;2023-08-20T05:07:10;101958.25;;;21.03;85.92
77639;BME280;66802;52.574;14.398;2023-08-20T05:09:36;101956.78;;;21.22;85.62
77639;BME280;66802;52.574;14.398;2023-08-20T05:12:02;101963.78;;;21.25;85.68
77639;BME280;66802;52.574;14.398;2023-08-20T05:14:28;101968.53;;;21.16;85.80
77639;BME280;66802;52.574;14.398;2023-08-20T05:16:54;101974.78;;;21.25;87.24
77639;BME280;66802;52.574;14.398;2023-08-20T05:19:20;101979.56;;;21.37;88.18
77639;BME280;66802;52.574;14.398;2023-08-20T05:21:45;101984.75;;;21.47;88.76
77639;BME280;66802;52.574;14.398;2023-08-20T05:24:11;101973.38;;;21.50;89.09
77639;BME280;66802;52.574;14.398;2023-08-20T05:26:36;101976.13;;;21.50;89.67
77639;BME280;66802;52.574;14.398;2023-08-20T05:29:02;101973.91;;;21.60;89.50
77639;BME280;66802;52.574;14.398;2023-08-20T05:31:27;101963.16;;;21.65;89.26
77639;BME280;66802;52.574;14.398;2023-08-20T05:33:53;101966.81;;;21.72;89.35
77639;BME280;66802;52.574;14.398;2023-08-20T05:36:19;101965.38;;;21.76;89.34
77639;BME280;66802;52.574;14.398;2023-08-20T05:38:44;101964.16;;;21.85;89.07
77639;BME280;66802;52.574;14.398;2023-08-20T05:41:10;101964.31;;;21.99;88.77
77639;BME280;66802;52.574;14.398;2023-08-20T05:43:35;101966.69;;;22.02;88.43
77639;BME280;66802;52.574;14.398;2023-08-20T05:46:04;101969.66;;;22.07;87.88
77639;BME280;66802;52.574;14.398;2023-08-20T05:48:29;101974.59;;;22.18;87.05
77639;BME280;66802;52.574;14.398;2023-08-20T05:50:56;101971.72;;;22.26;87.18
77639;BME280;66802;52.574;14.398;2023-08-20T05:53:22;101980.50;;;22.43;86.29
77639;BME280;66802;52.574;14.398;2023-08-20T05:55:48;101972.91;;;22.45;86.16
77639;BME280;66802;52.574;14.398;2023-08-20T05:58:14;101977.16;;;22.47;86.76
77639;BME280;66802;52.574;14.398;2023-08-20T06:00:39;101985.06;;;22.64;86.33
77639;BME280;66802;52.574;14.398;2023-08-20T06:03:05;101965.00;;;22.70;85.51
77639;BME280;66802;52.574;14.398;2023-08-20T06:05:35;101976.44;;;22.73;85.63
77639;BME280;66802;52.574;14.398;2023-08-20T06:08:01;101982.44;;;22.77;85.56
77639;BME280;66802;52.574;14.398;2023-08-20T06:10:27;101981.56;;;22.76;85.11
77639;BME280;66802;52.574;14.398;2023-08-20T06:12:53;101969.50;;;22.77;85.90
77639;BME280;66802;52.574;14.398;2023-08-20T06:15:18;101976.31;;;22.81;85.72
77639;BME280;66802;52.574;14.398;2023-08-20T06:17:44;101975.31;;;22.96;84.99
77639;BME280;66802;52.574;14.398;2023-08-20T06:20:10;101973.22;;;23.04;83.90
77639;BME280;66802;52.574;14.398;2023-08-20T06:22:37;101974.09;;;23.18;83.26
77639;BME280;66802;52.574;14.398;2023-08-20T06:25:04;101984.31;;;23.24;83.15
77639;BME280;66802;52.574;14.398;2023-08-20T06:27:30;101983.88;;;23.27;82.50
77639;BME280;66802;52.574;14.398;2023-08-20T06:29:56;101982.19;;;23.26;82.77
77639;BME280;66802;52.574;14.398;2023-08-20T06:32:24;101983.47;;;23.37;82.13
77639;BME280;66802;52.574;14.398;2023-08-20T06:34:50;101991.41;;;23.53;81.45
77639;BME280;66802;52.574;14.398;2023-08-20T06:37:15;102000.97;;;23.63;80.65
77639;BME280;66802;52.574;14.398;2023-08-20T06:39:41;102003.75;;;23.77;81.05
77639;BME280;66802;52.574;14.398;2023-08-20T06:42:06;101999.72;;;23.92;79.89
77639;BME280;66802;52.574;14.398;2023-08-20T06:44:32;101998.88;;;23.98;78.94
77639;BME280;66802;52.574;14.398;2023-08-20T06:46:57;102005.88;;;24.08;78.27
77639;BME280;66802;52.574;14.398;2023-08-20T06:49:23;102013.31;;;24.20;78.25
77639;BME280;66802;52.574;14.398;2023-08-20T06:51:49;102011.41;;;24.34;76.90
77639;BME280;66802;52.574;14.398;2023-08-20T06:54:15;102006.09;;;24.46;76.89
77639;BME280;66802;52.574;14.398;2023-08-20T06:56:41;102005.63;;;24.55;76.33
77639;BME280;66802;52.574;14.398;2023-08-20T06:59:07;102015.16;;;24.72;74.94
77639;BME280;66802;52.574;14.398;2023-08-20T07:01:32;102018.09;;;24.84;74.37
77639;BME280;66802;52.574;14.398;2023-08-20T07:03:58;102021.25;;;24.88;74.03
77639;BME280;66802;52.574;14.398;2023-08-20T07:06:24;102028.53;;;24.95;74.54
77639;BME280;66802;52.574;14.398;2023-08-20T07:08:50;102020.16;;;25.15;74.23
77639;BME280;66802;52.574;14.398;2023-08-20T07:11:16;102028.19;;;25.23;73.50
77639;BME280;66802;52.574;14.398;2023-08-20T07:13:41;102022.84;;;25.28;73.55
77639;BME280;66802;52.574;14.398;2023-08-20T07:16:07;102022.38;;;25.31;73.01
77639;BME280;66802;52.574;14.398;2023-08-20T07:18:33;102028.34;;;25.35;72.53
77639;BME280;66802;52.574;14.398;2023-08-20T07:20:58;102027.50;;;25.34;72.27
77639;BME280;66802;52.574;14.398;2023-08-20T07:23:24;102039.44;;;25.28;72.44
77639;BME280;66802;52.574;14.398;2023-08-20T07:25:50;102043.28;;;25.21;73.11
77639;BME280;66802;52.574;14.398;2023-08-20T07:28:18;102039.72;;;25.14;73.23
77639;BME280;66802;52.574;14.398;2023-08-20T07:31:06;102033.34;;;25.13;73.54
77639;BME280;66802;52.574;14.398;2023-08-20T07:33:32;102040.78;;;25.13;73.73
77639;BME280;66802;52.574;14.398;2023-08-20T07:35:57;102049.66;;;25.21;73.92
77639;BME280;66802;52.574;14.398;2023-08-20T07:38:23;102054.16;;;25.16;73.29
77639;BME280;66802;52.574;14.398;2023-08-20T07:40:48;102059.44;;;25.24;73.56
77639;BME280;66802;52.574;14.398;2023-08-20T07:43:14;102072.41;;;25.23;73.34
77639;BME280;66802;52.574;14.398;2023-08-20T07:45:39;102071.56;;;25.23;73.57
77639;BME280;66802;52.574;14.398;2023-08-20T07:48:05;102063.69;;;25.26;73.32
77639;BME280;66802;52.574;14.398;2023-08-20T07:50:30;102069.22;;;25.26;73.97
77639;BME280;66802;52.574;14.398;2023-08-20T07:52:56;102071.34;;;25.31;74.02
77639;BME280;66802;52.574;14.398;2023-08-20T07:55:21;102068.53;;;25.37;73.47
77639;BME280;66802;52.574;14.398;2023-08-20T07:57:47;102077.91;;;25.36;73.42
77639;BME280;66802;52.574;14.398;2023-08-20T08:00:15;102073.66;;;25.34;73.46
77639;BME280;66802;52.574;14.398;2023-08-20T08:02:40;102074.50;;;25.34;73.20
77639;BME280;66802;52.574;14.398;2023-08-20T08:05:06;102078.97;;;25.35;73.09
77639;BME280;66802;52.574;14.398;2023-08-20T08:07:32;102081.50;;;25.37;73.50
77639;BME280;66802;52.574;14.398;2023-08-20T08:09:57;102073.53;;;25.54;73.29
77639;BME280;66802;52.574;14.398;2023-08-20T08:12:23;102069.88;;;25.73;72.51
77639;BME280;66802;52.574;14.398;2023-08-20T08:14:49;102068.47;;;25.89;71.33
77639;BME280;66802;52.574;14.398;2023-08-20T08:17:14;102073.13;;;25.95;71.01
77639;BME280;66802;52.574;14.398;2023-08-20T08:19:40;102079.25;;;26.03;70.99
77639;BME280;66802;52.574;14.398;2023-08-20T08:22:05;102077.53;;;26.02;70.84
77639;BME280;66802;52.574;14.398;2023-08-20T08:24:31;102092.06;;;26.23;69.89
77639;BME280;66802;52.574;14.398;2023-08-20T08:26:56;102086.47;;;26.36;69.98
77639;BME280;66802;52.574;14.398;2023-08-20T08:29:22;102088.84;;;26.57;69.88
77639;BME280;66802;52.574;14.398;2023-08-20T08:31:47;102092.56;;;26.69;68.04
77639;BME280;66802;52.574;14.398;2023-08-20T08:34:13;102090.78;;;26.75;67.20
77639;BME280;66802;52.574;14.398;2023-08-20T08:36:39;102090.19;;;26.91;67.62
77639;BME280;66802;52.574;14.398;2023-08-20T08:39:05;102083.13;;;26.95;67.28
77639;BME280;66802;52.574;14.398;2023-08-20T08:41:35;102093.00;;;27.09;67.35
77639;BME280;66802;52.574;14.398;2023-08-20T08:44:06;102097.56;;;27.22;67.43
77639;BME280;66802;52.574;14.398;2023-08-20T08:46:32;102096.00;;;27.26;66.50
77639;BME280;66802;52.574;14.398;2023-08-20T08:48:59;102107.03;;;27.14;66.73
77639;BME280;66802;52.574;14.398;2023-08-20T08:51:25;102099.00;;;27.06;66.67
77639;BME280;66802;52.574;14.398;2023-08-20T08:53:53;102094.22;;;26.95;67.42
77639;BME280;66802;52.574;14.398;2023-08-20T08:56:19;102093.09;;;27.03;66.78
77639;BME280;66802;52.574;14.398;2023-08-20T08:58:44;102087.84;;;27.13;66.95
77639;BME280;66802;52.574;14.398;2023-08-20T09:01:10;102102.94;;;27.17;65.79
77639;BME280;66802;52.574;14.398;2023-08-20T09:03:35;102104.00;;;27.16;66.11
77639;BME280;66802;52.574;14.398;2023-08-20T09:06:02;102101.22;;;27.16;66.07
77639;BME280;66802;52.574;14.398;2023-08-20T09:08:33;102101.41;;;27.21;65.94
77639;BME280;66802;52.574;14.398;2023-08-20T09:11:00;102107.25;;;27.13;65.97
77639;BME280;66802;52.574;14.398;2023-08-20T09:13:36;102102.78;;;27.12;65.63
77639;BME280;66802;52.574;14.398;2023-08-20T09:16:06;102099.72;;;27.20;65.71
77639;BME280;66802;52.574;14.398;2023-08-20T09:18:45;102104.69;;;27.48;65.13
77639;BME280;66802;52.574;14.398;2023-08-20T09:21:12;102098.31;;;27.66;63.70
77639;BME280;66802;52.574;14.398;2023-08-20T09:23:39;102101.97;;;27.78;63.44
77639;BME280;66802;52.574;14.398;2023-08-20T09:26:06;102110.88;;;27.80;64.51
77639;BME280;66802;52.574;14.398;2023-08-20T09:28:45;102102.53;;;27.98;62.15
77639;BME280;66802;52.574;14.398;2023-08-20T09:31:12;102091.53;;;28.03;61.77
77639;BME280;66802;52.574;14.398;2023-08-20T09:33:54;102101.41;;;28.17;60.81
77639;BME280;66802;52.574;14.398;2023-08-20T09:36:30;102104.31;;;28.22;62.48
77639;BME280;66802;52.574;14.398;2023-08-20T09:38:56;102095.88;;;28.29;62.73
77639;BME280;66802;52.574;14.398;2023-08-20T09:41:23;102093.22;;;28.22;63.40
77639;BME280;66802;52.574;14.398;2023-08-20T09:43:56;102096.13;;;28.39;62.60
77639;BME280;66802;52.574;14.398;2023-08-20T09:46:24;102100.38;;;28.53;61.86
77639;BME280;66802;52.574;14.398;2023-08-20T09:48:51;102101.09;;;28.60;61.07
77639;BME280;66802;52.574;14.398;2023-08-20T09:51:24;102106.66;;;28.72;60.37
77639;BME280;66802;52.574;14.398;2023-08-20T09:54:02;102103.06;;;28.83;59.72
77639;BME280;66802;52.574;14.398;2023-08-20T09:56:30;102103.66;;;28.85;60.94
77639;BME280;66802;52.574;14.398;2023-08-20T09:58:57;102101.22;;;29.00;60.74
77639;BME280;66802;52.574;14.398;2023-08-20T10:01:24;102095.88;;;29.11;60.29
77639;BME280;66802;52.574;14.398;2023-08-20T10:03:51;102091.91;;;29.07;60.39
77639;BME280;66802;52.574;14.398;2023-08-20T10:06:17;102096.16;;;28.97;59.87
77639;BME280;66802;52.574;14.398;2023-08-20T10:08:45;102086.00;;;28.91;60.07
77639;BME280;66802;52.574;14.398;2023-08-20T10:11:12;102086.25;;;28.90;60.74
77639;BME280;66802;52.574;14.398;2023-08-20T10:13:39;102067.84;;;29.00;60.96
77639;BME280;66802;52.574;14.398;2023-08-20T10:16:05;102076.78;;;29.02;59.69
77639;BME280;66802;52.574;14.398;2023-08-20T10:18:30;102070.28;;;28.97;60.41
77639;BME280;66802;52.574;14.398;2023-08-20T10:21:00;102072.22;;;28.96;60.11
77639;BME280;66802;52.574;14.398;2023-08-20T10:23:27;102069.44;;;28.96;60.26
77639;BME280;66802;52.574;14.398;2023-08-20T10:25:54;102067.50;;;28.97;60.31
77639;BME280;66802;52.574;14.398;2023-08-20T10:28:25;102054.44;;;29.09;60.29
77639;BME280;66802;52.574;14.398;2023-08-20T10:31:08;102061.16;;;29.25;60.62
77639;BME280;66802;52.574;14.398;2023-08-20T10:36:16;102060.66;;;29.28;59.21
77639;BME280;66802;52.574;14.398;2023-08-20T10:38:45;102058.28;;;29.20;60.48
77639;BME280;66802;52.574;14.398;2023-08-20T10:41:11;102063.94;;;29.25;59.66
77639;BME280;66802;52.574;14.398;2023-08-20T10:43:46;102069.00;;;29.28;59.98
77639;BME280;66802;52.574;14.398;2023-08-20T10:48:53;102067.47;;;29.20;59.92
77639;BME280;66802;52.574;14.398;2023-08-20T10:51:31;102076.16;;;29.24;59.72
77639;BME280;66802;52.574;14.398;2023-08-20T10:56:41;102081.94;;;29.22;60.19
77639;BME280;66802;52.574;14.398;2023-08-20T10:59:09;102079.41;;;29.21;61.44
77639;BME280;66802;52.574;14.398;2023-08-20T11:01:38;102080.97;;;29.40;62.25
77639;BME280;66802;52.574;14.398;2023-08-20T11:04:04;102075.22;;;29.58;60.05
77639;BME280;66802;52.574;14.398;2023-08-20T11:06:33;102086.47;;;29.63;59.62
77639;BME280;66802;52.574;14.398;2023-08-20T11:08:58;102082.53;;;29.48;58.69
77639;BME280;66802;52.574;14.398;2023-08-20T11:11:25;102086.31;;;29.30;60.15
77639;BME280;66802;52.574;14.398;2023-08-20T11:13:51;102084.97;;;29.21;60.28
77639;BME280;66802;52.574;14.398;2023-08-20T11:16:17;102084.88;;;29.16;61.09
77639;BME280;66802;52.574;14.398;2023-08-20T11:18:43;102078.06;;;29.23;60.84
77639;BME280;66802;52.574;14.398;2023-08-20T11:21:09;102080.22;;;29.33;60.73
77639;BME280;66802;52.574;14.398;2023-08-20T11:23:35;102089.75;;;29.60;58.77
77639;BME280;66802;52.574;14.398;2023-08-20T11:26:00;102080.50;;;29.71;59.20
77639;BME280;66802;52.574;14.398;2023-08-20T11:28:28;102073.41;;;29.81;59.34
77639;BME280;66802;52.574;14.398;2023-08-20T11:30:54;102077.94;;;29.98;57.49
77639;BME280;66802;52.574;14.398;2023-08-20T11:33:23;102072.41;;;30.15;57.48
77639;BME280;66802;52.574;14.398;2023-08-20T11:35:50;102075.63;;;30.24;55.58
77639;BME280;66802;52.574;14.398;2023-08-20T11:38:16;102065.50;;;30.18;55.10
77639;BME280;66802;52.574;14.398;2023-08-20T11:40:42;102067.69;;;30.16;55.97
77639;BME280;66802;52.574;14.398;2023-08-20T11:43:08;102061.88;;;30.17;55.79
77639;BME280;66802;52.574;14.398;2023-08-20T11:45:44;102074.09;;;30.33;56.29
77639;BME280;66802;52.574;14.398;2023-08-20T11:48:10;102071.91;;;30.35;55.35
77639;BME280;66802;52.574;14.398;2023-08-20T11:50:35;102067.44;;;30.34;56.39
77639;BME280;66802;52.574;14.398;2023-08-20T11:53:03;102076.13;;;30.37;55.22
77639;BME280;66802;52.574;14.398;2023-08-20T11:55:30;102078.75;;;30.27;54.88
77639;BME280;66802;52.574;14.398;2023-08-20T11:57:56;102073.56;;;30.19;54.47
77639;BME280;66802;52.574;14.398;2023-08-20T12:00:26;102077.72;;;30.17;55.38
77639;BME280;66802;52.574;14.398;2023-08-20T12:02:55;102086.47;;;30.08;54.02
77639;BME280;66802;52.574;14.398;2023-08-20T12:05:21;102080.38;;;29.95;54.76
77639;BME280;66802;52.574;14.398;2023-08-20T12:07:58;102090.50;;;29.84;52.60
77639;BME280;66802;52.574;14.398;2023-08-20T12:10:26;102079.41;;;29.72;52.06
77639;BME280;66802;52.574;14.398;2023-08-20T12:12:52;102073.78;;;29.84;52.75
77639;BME280;66802;52.574;14.398;2023-08-20T12:15:18;102075.41;;;29.97;51.44
77639;BME280;66802;52.574;14.398;2023-08-20T12:17:58;102079.88;;;29.98;49.24
77639;BME280;66802;52.574;14.398;2023-08-20T12:20:27;102078.09;;;29.92;50.54
77639;BME280;66802;52.574;14.398;2023-08-20T12:22:53;102073.13;;;29.94;50.01
77639;BME280;66802;52.574;14.398;2023-08-20T12:25:18;102067.50;;;30.05;51.32
77639;BME280;66802;52.574;14.398;2023-08-20T12:27:44;102072.16;;;30.17;50.92
77639;BME280;66802;52.574;14.398;2023-08-20T12:30:10;102064.22;;;30.25;50.09
77639;BME280;66802;52.574;14.398;2023-08-20T12:32:36;102071.81;;;30.30;48.56
77639;BME280;66802;52.574;14.398;2023-08-20T12:35:02;102072.16;;;30.33;50.55
77639;BME280;66802;52.574;14.398;2023-08-20T12:37:28;102066.31;;;30.18;51.06
77639;BME280;66802;52.574;14.398;2023-08-20T12:39:53;102071.38;;;30.21;50.42
77639;BME280;66802;52.574;14.398;2023-08-20T12:42:19;102075.59;;;30.40;50.94
77639;BME280;66802;52.574;14.398;2023-08-20T12:44:45;102064.97;;;30.37;48.59
77639;BME280;66802;52.574;14.398;2023-08-20T12:47:10;102077.47;;;30.35;46.42
77639;BME280;66802;52.574;14.398;2023-08-20T12:49:36;102079.91;;;30.31;47.81
77639;BME280;66802;52.574;14.398;2023-08-20T12:52:01;102075.28;;;30.37;49.80
77639;BME280;66802;52.574;14.398;2023-08-20T12:54:27;102071.22;;;30.44;48.29
77639;BME280;66802;52.574;14.398;2023-08-20T12:56:52;102070.03;;;30.40;48.46
77639;BME280;66802;52.574;14.398;2023-08-20T12:59:18;102067.44;;;30.34;48.13
77639;BME280;66802;52.574;14.398;2023-08-20T13:01:44;102072.09;;;30.28;46.52
77639;BME280;66802;52.574;14.398;2023-08-20T13:04:09;102067.31;;;30.29;48.06
77639;BME280;66802;52.574;14.398;2023-08-20T13:06:37;102059.75;;;30.24;47.71
77639;BME280;66802;52.574;14.398;2023-08-20T13:09:03;102064.97;;;30.21;46.42
77639;BME280;66802;52.574;14.398;2023-08-20T13:11:29;102062.19;;;30.21;47.17
77639;BME280;66802;52.574;14.398;2023-08-20T13:13:56;102061.44;;;30.25;48.55
77639;BME280;66802;52.574;14.398;2023-08-20T13:16:22;102060.25;;;30.21;49.25
77639;BME280;66802;52.574;14.398;2023-08-20T13:18:48;102064.38;;;30.19;49.43
77639;BME280;66802;52.574;14.398;2023-08-20T13:21:14;102065.38;;;30.29;49.73
77639;BME280;66802;52.574;14.398;2023-08-20T13:23:40;102061.69;;;30.24;48.57
77639;BME280;66802;52.574;14.398;2023-08-20T13:26:06;102056.09;;;30.24;49.79
77639;BME280;66802;52.574;14.398;2023-08-20T13:28:32;102043.03;;;30.24;50.48
77639;BME280;66802;52.574;14.398;2023-08-20T13:30:57;102047.34;;;30.15;49.93
77639;BME280;66802;52.574;14.398;2023-08-20T13:33:23;102046.25;;;30.16;51.67
77639;BME280;66802;52.574;14.398;2023-08-20T13:35:48;102039.81;;;30.32;51.72
77639;BME280;66802;52.574;14.398;2023-08-20T13:38:14;102041.09;;;30.58;49.91
77639;BME280;66802;52.574;14.398;2023-08-20T13:40:40;102037.69;;;30.56;50.65
77639;BME280;66802;52.574;14.398;2023-08-20T13:43:05;102035.81;;;30.62;50.55
77639;BME280;66802;52.574;14.398;2023-08-20T13:45:32;102039.06;;;30.54;49.11
77639;BME280;66802;52.574;14.398;2023-08-20T13:47:57;102036.88;;;30.39;49.91
77639;BME280;66802;52.574;14.398;2023-08-20T13:50:23;102029.06;;;30.41;50.68
77639;BME280;66802;52.574;14.398;2023-08-20T13:52:48;102045.53;;;30.42;49.68
77639;BME280;66802;52.574;14.398;2023-08-20T13:55:14;102047.66;;;30.35;49.71
77639;BME280;66802;52.574;14.398;2023-08-20T13:57:40;102043.09;;;30.29;49.22
77639;BME280;66802;52.574;14.398;2023-08-20T14:00:06;102046.06;;;30.23;50.39
77639;BME280;66802;52.574;14.398;2023-08-20T14:02:35;102047.22;;;30.10;49.92
77639;BME280;66802;52.574;14.398;2023-08-20T14:05:01;102054.44;;;30.06;51.15
77639;BME280;66802;52.574;14.398;2023-08-20T14:07:26;102046.91;;;30.06;51.32
77639;BME280;66802;52.574;14.398;2023-08-20T14:09:53;102042.59;;;30.32;50.43
77639;BME280;66802;52.574;14.398;2023-08-20T14:12:18;102034.97;;;30.44;50.73
77639;BME280;66802;52.574;14.398;2023-08-20T14:14:45;102048.00;;;30.56;50.15
77639;BME280;66802;52.574;14.398;2023-08-20T14:17:10;102039.16;;;30.59;49.54
77639;BME280;66802;52.574;14.398;2023-08-20T14:19:36;102037.34;;;30.53;49.24
77639;BME280;66802;52.574;14.398;2023-08-20T14:22:01;102040.56;;;30.44;47.92
77639;BME280;66802;52.574;14.398;2023-08-20T14:24:27;102043.44;;;30.33;48.07
77639;BME280;66802;52.574;14.398;2023-08-20T14:26:52;102043.09;;;30.12;49.12
77639;BME280;66802;52.574;14.398;2023-08-20T14:29:18;102047.09;;;30.17;48.51
77639;BME280;66802;52.574;14.398;2023-08-20T14:31:44;102042.38;;;30.17;48.39
77639;BME280;66802;52.574;14.398;2023-08-20T14:34:40;102049.03;;;30.16;48.98
77639;BME280;66802;52.574;14.398;2023-08-20T14:37:05;102040.06;;;30.31;48.23
77639;BME280;66802;52.574;14.398;2023-08-20T14:39:31;102043.38;;;30.28;49.01
77639;BME280;66802;52.574;14.398;2023-08-20T14:41:58;102037.94;;;30.21;50.00
77639;BME280;66802;52.574;14.398;2023-08-20T14:44:23;102035.94;;;30.17;49.80
77639;BME280;66802;52.574;14.398;2023-08-20T14:46:49;102027.91;;;30.20;50.64
77639;BME280;66802;52.574;14.398;2023-08-20T14:49:15;102026.06;;;30.26;50.01
77639;BME280;66802;52.574;14.398;2023-08-20T14:51:41;102030.28;;;30.28;50.50
77639;BME280;66802;52.574;14.398;2023-08-20T14:54:07;102024.44;;;30.30;49.91
77639;BME280;66802;52.574;14.398;2023-08-20T14:56:32;102029.94;;;30.25;49.50
77639;BME280;66802;52.574;14.398;2023-08-20T14:58:58;102025.03;;;30.15;51.23
77639;BME280;66802;52.574;14.398;2023-08-20T15:01:23;102028.34;;;30.12;50.93
77639;BME280;66802;52.574;14.398;2023-08-20T15:03:49;102032.56;;;30.15;50.47
77639;BME280;66802;52.574;14.398;2023-08-20T15:06:14;102023.34;;;30.14;51.08
77639;BME280;66802;52.574;14.398;2023-08-20T15:08:40;102019.13;;;30.11;49.90
77639;BME280;66802;52.574;14.398;2023-08-20T15:11:06;102016.53;;;30.05;51.31
77639;BME280;66802;52.574;14.398;2023-08-20T15:13:32;102021.88;;;29.95;50.37
77639;BME280;66802;52.574;14.398;2023-08-20T15:15:57;102026.41;;;29.96;51.17
77639;BME280;66802;52.574;14.398;2023-08-20T15:18:24;102024.44;;;29.96;50.65
77639;BME280;66802;52.574;14.398;2023-08-20T15:20:57;102020.34;;;29.87;51.45
77639;BME280;66802;52.574;14.398;2023-08-20T15:23:24;102017.56;;;29.87;51.05
77639;BME280;66802;52.574;14.398;2023-08-20T15:25:55;102014.84;;;29.75;51.65
77639;BME280;66802;52.574;14.398;2023-08-20T15:28:25;102025.91;;;29.87;49.94
77639;BME280;66802;52.574;14.398;2023-08-20T15:30:51;102021.78;;;29.90;49.56
77639;BME280;66802;52.574;14.398;2023-08-20T15:33:18;102018.22;;;29.77;48.16
77639;BME280;66802;52.574;14.398;2023-08-20T15:35:44;102011.75;;;29.72;47.53
77639;BME280;66802;52.574;14.398;2023-08-20T15:38:09;102012.66;;;29.61;49.25
77639;BME280;66802;52.574;14.398;2023-08-20T15:40:38;102016.94;;;29.52;49.53
77639;BME280;66802;52.574;14.398;2023-08-20T15:43:03;102019.34;;;29.48;47.54
77639;BME280;66802;52.574;14.398;2023-08-20T15:45:29;102014.69;;;29.37;47.91